This is the latest recevied weather packets stored in our database for station/object GW1491. If no packets are shown the sender has not sent any weather packets the latest 10 day(s).
| Time | Temp. | Humidity | Pressure | Rain* | Wind** | Luminosity | Snow |
|---|---|---|---|---|---|---|---|
| 1777925741 | 22.22° C | 58% | 1009.4 hPa | 0 mm | - | - | - |
| 1777923577 | 22.22° C | 58% | 1009.4 hPa | 0 mm | - | - | - |
| 1777922842 | 22.22° C | 55% | 1009.4 hPa | 0 mm | - | - | - |
| 1777921789 | 22.78° C | 57% | 1009.4 hPa | 0 mm | - | - | - |
| 1777921054 | 22.78° C | 56% | 1009.8 hPa | 0 mm | - | - | - |
| 1777920335 | 21.67° C | 57% | 1009.8 hPa | 0 mm | - | - | - |
| 1777917800 | 21.67° C | 58% | 1009.8 hPa | 0 mm | - | - | - |
| 1777917468 | 21.11° C | 59% | 1010.1 hPa | 0 mm | - | - | - |
| 1777915633 | 20.56° C | 61% | 1010.1 hPa | 0 mm | - | - | - |
| 1777913498 | 19.44° C | 63% | 1010.4 hPa | 0 mm | - | - | - |
| 1777911690 | 18.89° C | 65% | 1011.1 hPa | 0 mm | - | - | - |
| 1777911312 | 19.44° C | 65% | 1011.1 hPa | 0 mm | - | - | - |
| 1777910082 | 17.78° C | 65% | 1011.5 hPa | 0 mm | - | - | - |
| 1777908269 | 17.22° C | 65% | 1011.5 hPa | 0 mm | - | - | - |
| 1777907533 | 16.67° C | 66% | 1011.8 hPa | 0 mm | - | - | - |
| 1777906483 | 16.67° C | 66% | 1012.1 hPa | 0 mm | - | - | - |
| 1777903613 | 15.56° C | 66% | 1012.1 hPa | 0 mm | - | - | - |
| 1777902871 | 15° C | 66% | 1012.1 hPa | 0 mm | - | - | - |
| 1777902164 | 15° C | 65% | 1012.1 hPa | 0 mm | - | - | - |
| 1777898905 | 12.78° C | 69% | 1012.1 hPa | 0 mm | - | - | - |
| 1777896405 | 11.11° C | 73% | 1012.1 hPa | 0 mm | - | - | - |
| 1777895324 | 10.56° C | 74% | 1012.1 hPa | 0 mm | - | - | - |
| 1777892430 | 9.44° C | 77% | 1012.1 hPa | 0 mm | - | - | - |
| 1777888488 | 9.44° C | 76% | 1012.5 hPa | 0 mm | - | - | - |
| 1777888097 | 10° C | 76% | 1012.5 hPa | 0 mm | - | - | - |
* Rain since midnight (hover to see other rain measurements)
** Current wind speed in m/s (hover to see current wind gust speed)